createdAt,value
2023-04-28T00:00:09.770Z,8.32
2023-04-28T00:00:41.612Z,8.26
2023-04-28T00:01:13.115Z,8.32
2023-04-28T00:01:44.775Z,8.31
2023-04-28T00:02:17.179Z,8.25
2023-04-28T00:02:49.358Z,8.23
2023-04-28T00:03:21.112Z,8.26
2023-04-28T00:03:53.583Z,8.23
2023-04-28T00:04:26.200Z,8.24
2023-04-28T00:05:29.694Z,8.26
2023-04-28T00:06:01.322Z,8.26
2023-04-28T00:06:32.938Z,8.28
2023-04-28T00:07:04.540Z,8.27
2023-04-28T00:07:36.114Z,8.27
2023-04-28T00:08:08.164Z,8.25
2023-04-28T00:08:39.754Z,8.23
2023-04-28T00:09:12.003Z,8.21
2023-04-28T00:09:43.600Z,8.17
2023-04-28T00:10:15.198Z,8.15
2023-04-28T00:10:46.812Z,8.16
2023-04-28T00:11:18.318Z,8.15
2023-04-28T00:11:49.952Z,8.14
2023-04-28T00:12:21.582Z,8.01
2023-04-28T00:12:53.146Z,8.04
2023-04-28T00:13:24.761Z,8.04
2023-04-28T00:13:56.329Z,8.06
2023-04-28T00:14:27.965Z,8.05
2023-04-28T00:14:59.537Z,8.09
2023-04-28T00:15:31.084Z,8.10
2023-04-28T00:16:02.706Z,8.05
2023-04-28T00:16:34.320Z,8.02
2023-04-28T00:17:06.055Z,8.07
2023-04-28T00:17:37.782Z,8.10
2023-04-28T00:18:09.481Z,8.05
2023-04-28T00:18:41.024Z,7.96
2023-04-28T00:19:12.601Z,8.05
2023-04-28T00:19:45.094Z,8.05
2023-04-28T00:20:16.911Z,8.07
2023-04-28T00:20:48.520Z,8.02
2023-04-28T00:21:20.043Z,8.05
2023-04-28T00:21:51.545Z,8.04
2023-04-28T00:22:23.116Z,8.04
2023-04-28T00:22:54.632Z,8.02
2023-04-28T00:23:26.239Z,8.02
2023-04-28T00:23:57.865Z,7.92
2023-04-28T00:24:29.446Z,7.99
2023-04-28T00:25:01.041Z,7.92
2023-04-28T00:25:32.665Z,7.97
2023-04-28T00:26:04.272Z,7.97
2023-04-28T00:26:36.015Z,8.02
2023-04-28T00:27:07.926Z,7.99
2023-04-28T00:27:39.473Z,7.99
2023-04-28T00:28:11.678Z,7.83
2023-04-28T00:28:45.937Z,7.95
2023-04-28T00:29:17.458Z,7.97
2023-04-28T00:29:49.175Z,7.99
2023-04-28T00:30:20.911Z,7.98
2023-04-28T00:30:52.521Z,7.87
2023-04-28T00:31:24.084Z,7.79
2023-04-28T00:31:56.075Z,7.69
2023-04-28T00:32:27.747Z,7.83
2023-04-28T00:32:59.344Z,7.85
2023-04-28T00:33:30.958Z,7.88
2023-04-28T00:34:02.643Z,7.87
2023-04-28T00:34:34.418Z,7.89
2023-04-28T00:35:07.238Z,7.92
2023-04-28T00:35:39.029Z,7.90
2023-04-28T00:36:11.420Z,7.95
2023-04-28T00:36:43.055Z,7.93
2023-04-28T00:37:14.618Z,7.88
2023-04-28T00:37:46.155Z,7.89
2023-04-28T00:38:17.706Z,7.88
2023-04-28T00:38:49.401Z,7.85
2023-04-28T00:39:22.867Z,7.84
2023-04-28T00:39:57.808Z,7.82
2023-04-28T00:40:36.834Z,7.79
2023-04-28T00:41:10.290Z,7.72
2023-04-28T00:41:41.856Z,7.71
2023-04-28T00:42:17.097Z,7.71
2023-04-28T00:42:48.705Z,7.70
2023-04-28T00:43:20.424Z,7.64
2023-04-28T00:43:52.225Z,7.61
2023-04-28T00:44:23.902Z,7.62
2023-04-28T00:44:55.518Z,7.66
2023-04-28T00:45:27.201Z,7.69
2023-04-28T00:45:59.082Z,7.70
2023-04-28T00:46:32.285Z,7.71
2023-04-28T00:47:04.145Z,7.73
2023-04-28T00:47:37.355Z,7.65
2023-04-28T00:48:09.133Z,7.69
2023-04-28T00:48:40.895Z,7.72
2023-04-28T00:49:12.505Z,7.72
2023-04-28T00:49:44.204Z,7.76
2023-04-28T00:50:16.563Z,7.80
2023-04-28T00:50:48.445Z,7.79
2023-04-28T00:51:21.140Z,7.74
2023-04-28T00:51:52.673Z,7.71
2023-04-28T00:52:24.230Z,7.71
2023-04-28T00:52:56.044Z,7.70
2023-04-28T00:53:27.625Z,7.77
2023-04-28T00:53:59.596Z,7.78
2023-04-28T00:54:33.571Z,7.79
2023-04-28T00:55:05.821Z,7.81
2023-04-28T00:55:38.165Z,7.81
2023-04-28T00:56:10.067Z,7.78
2023-04-28T00:56:42.177Z,7.85
2023-04-28T00:57:13.735Z,7.86
2023-04-28T00:57:45.839Z,7.83
2023-04-28T00:58:18.943Z,7.85
2023-04-28T00:58:50.536Z,7.80
2023-04-28T00:59:22.132Z,7.77
2023-04-28T00:59:54.039Z,7.75
2023-04-28T01:00:25.582Z,7.76
2023-04-28T01:01:09.045Z,7.74
2023-04-28T01:01:41.007Z,7.78
2023-04-28T01:02:17.495Z,7.81
2023-04-28T01:02:51.472Z,7.80
2023-04-28T01:03:23.697Z,7.81
2023-04-28T01:03:56.394Z,7.79
2023-04-28T01:04:29.804Z,7.84
2023-04-28T01:05:02.500Z,7.82
2023-04-28T01:05:35.119Z,7.81
2023-04-28T01:06:08.691Z,7.80
2023-04-28T01:06:42.011Z,7.80
2023-04-28T01:07:13.609Z,7.78
2023-04-28T01:07:45.428Z,7.78
2023-04-28T01:08:16.999Z,7.81
2023-04-28T01:08:50.442Z,7.80
2023-04-28T01:09:22.853Z,7.83
2023-04-28T01:09:56.793Z,7.79
2023-04-28T01:10:33.455Z,7.80
2023-04-28T01:11:14.238Z,7.82
2023-04-28T01:12:01.900Z,7.85
2023-04-28T01:12:53.668Z,7.78
2023-04-28T01:13:25.429Z,7.82
2023-04-28T01:13:59.415Z,7.82
2023-04-28T01:14:33.981Z,7.82
2023-04-28T01:15:06.359Z,7.83
2023-04-28T01:15:38.051Z,7.85
2023-04-28T01:16:09.652Z,7.84
2023-04-28T01:16:42.042Z,7.77
2023-04-28T01:17:14.096Z,7.72
2023-04-28T01:17:47.027Z,7.80
2023-04-28T01:18:18.898Z,7.79
2023-04-28T01:18:50.604Z,7.78
2023-04-28T01:19:22.585Z,7.77
2023-04-28T01:19:55.924Z,7.77
2023-04-28T01:20:27.512Z,7.79
2023-04-28T01:20:59.318Z,7.79
2023-04-28T01:21:32.634Z,7.77
2023-04-28T01:22:11.544Z,7.72
2023-04-28T01:22:43.185Z,7.71
2023-04-28T01:23:16.506Z,7.74
2023-04-28T01:23:48.291Z,7.69
2023-04-28T01:24:20.066Z,7.69
2023-04-28T01:24:51.775Z,7.73
2023-04-28T01:25:23.362Z,7.75
2023-04-28T01:25:54.940Z,7.70
2023-04-28T01:26:26.762Z,7.73
2023-04-28T01:26:58.555Z,7.73
2023-04-28T01:27:30.194Z,7.69
2023-04-28T01:28:01.830Z,7.67
2023-04-28T01:28:33.419Z,7.68
2023-04-28T01:29:05.083Z,7.66
2023-04-28T01:29:36.691Z,7.68
2023-04-28T01:30:08.939Z,7.61
2023-04-28T01:30:40.704Z,7.64
2023-04-28T01:31:12.349Z,7.67
2023-04-28T01:31:44.112Z,7.60
2023-04-28T01:32:15.938Z,7.66
2023-04-28T01:32:47.566Z,7.60
2023-04-28T01:33:19.231Z,7.64
2023-04-28T01:33:50.741Z,7.68
2023-04-28T01:34:22.297Z,7.74
2023-04-28T01:34:54.944Z,7.78
2023-04-28T01:35:26.720Z,7.80
2023-04-28T01:35:59.074Z,7.79
2023-04-28T01:36:30.736Z,7.71
2023-04-28T01:37:02.351Z,7.69
2023-04-28T01:37:34.028Z,7.65
2023-04-28T01:38:05.822Z,7.74
2023-04-28T01:38:37.369Z,7.76
2023-04-28T01:39:09.120Z,7.74
2023-04-28T01:39:40.770Z,7.72
2023-04-28T01:40:12.889Z,7.65
2023-04-28T01:40:44.531Z,7.70
2023-04-28T01:41:16.311Z,7.71
2023-04-28T01:41:48.095Z,7.74
2023-04-28T01:42:19.705Z,7.69
2023-04-28T01:42:51.240Z,7.67
2023-04-28T01:43:22.782Z,7.67
2023-04-28T01:43:54.328Z,7.70
2023-04-28T01:44:25.945Z,7.71
2023-04-28T01:44:58.302Z,7.68
2023-04-28T01:45:29.813Z,7.64
2023-04-28T01:46:01.522Z,7.67
2023-04-28T01:46:33.902Z,7.64
2023-04-28T01:47:05.675Z,7.65
2023-04-28T01:47:39.860Z,7.68
2023-04-28T01:48:11.667Z,7.68
2023-04-28T01:48:43.426Z,7.69
2023-04-28T01:49:14.976Z,7.72
2023-04-28T01:49:48.282Z,7.70
2023-04-28T01:50:19.904Z,7.67
2023-04-28T01:50:51.433Z,7.69
2023-04-28T01:51:22.985Z,7.69
2023-04-28T01:51:54.506Z,7.67
2023-04-28T01:52:27.355Z,7.69
2023-04-28T01:52:59.283Z,7.67
2023-04-28T01:53:31.376Z,7.69
2023-04-28T01:54:03.299Z,7.71
2023-04-28T01:54:35.331Z,7.68
2023-04-28T01:55:07.310Z,7.70
2023-04-28T01:55:39.019Z,7.65
2023-04-28T01:56:10.650Z,7.66
2023-04-28T01:56:43.024Z,7.65
2023-04-28T01:57:17.713Z,7.48
2023-04-28T01:57:50.271Z,7.63
2023-04-28T01:58:22.672Z,7.67
2023-04-28T01:58:54.680Z,7.70
2023-04-28T01:59:26.397Z,7.74
2023-04-28T01:59:59.644Z,7.71
2023-04-28T02:00:31.586Z,7.67
2023-04-28T02:01:03.511Z,7.70
2023-04-28T02:01:35.320Z,7.71
2023-04-28T02:02:07.091Z,7.59
2023-04-28T02:02:38.783Z,7.69
2023-04-28T02:03:10.496Z,7.72
2023-04-28T02:03:42.303Z,7.73
2023-04-28T02:04:14.129Z,7.75
2023-04-28T02:04:46.258Z,7.75
2023-04-28T02:05:17.847Z,7.72
2023-04-28T02:05:52.423Z,7.71
2023-04-28T02:06:24.158Z,7.72
2023-04-28T02:06:55.703Z,7.76
2023-04-28T02:07:27.341Z,7.73
2023-04-28T02:07:58.859Z,7.74
2023-04-28T02:08:30.483Z,7.69
2023-04-28T02:09:02.123Z,7.71
2023-04-28T02:09:34.021Z,7.78
2023-04-28T02:10:06.052Z,7.80
2023-04-28T02:10:37.626Z,7.81
2023-04-28T02:11:09.763Z,7.71
2023-04-28T02:11:41.566Z,7.67
2023-04-28T02:12:13.120Z,7.69
2023-04-28T02:12:44.674Z,7.69
2023-04-28T02:13:17.230Z,7.87
2023-04-28T02:13:48.753Z,7.89
2023-04-28T02:14:20.345Z,7.88
2023-04-28T02:14:51.985Z,7.84
2023-04-28T02:15:23.548Z,7.82
2023-04-28T02:15:55.121Z,7.84
2023-04-28T02:16:26.776Z,7.84
2023-04-28T02:16:59.387Z,7.86
2023-04-28T02:17:31.332Z,7.90
2023-04-28T02:18:02.988Z,7.78
2023-04-28T02:18:36.224Z,7.81
2023-04-28T02:19:07.837Z,7.76
2023-04-28T02:19:39.374Z,7.80
2023-04-28T02:20:11.567Z,7.71
2023-04-28T02:20:43.199Z,7.58
2023-04-28T02:21:14.923Z,7.52
2023-04-28T02:21:46.450Z,7.48
2023-04-28T02:22:18.613Z,7.48
2023-04-28T02:22:50.391Z,7.60
2023-04-28T02:23:21.992Z,7.65
2023-04-28T02:23:53.632Z,7.65
2023-04-28T02:24:25.160Z,7.73
2023-04-28T02:24:57.318Z,7.75
2023-04-28T02:25:29.018Z,7.72
2023-04-28T02:26:01.665Z,7.93
2023-04-28T02:26:33.864Z,8.00
2023-04-28T02:27:05.782Z,7.94
2023-04-28T02:27:38.323Z,8.00
2023-04-28T02:28:10.104Z,8.00
2023-04-28T02:28:41.788Z,8.01
2023-04-28T02:29:13.338Z,7.94
2023-04-28T02:29:44.899Z,7.92
2023-04-28T02:30:16.589Z,8.02
2023-04-28T02:30:48.171Z,8.05
2023-04-28T02:31:19.767Z,7.94
2023-04-28T02:31:51.518Z,7.95
2023-04-28T02:32:23.451Z,7.94
2023-04-28T02:32:56.310Z,8.03
2023-04-28T02:33:28.791Z,7.88
2023-04-28T02:34:00.357Z,8.02
2023-04-28T02:34:31.994Z,7.92
2023-04-28T02:35:03.692Z,7.84
2023-04-28T02:35:35.256Z,7.96
2023-04-28T02:36:07.756Z,7.88
2023-04-28T02:36:39.448Z,8.00
2023-04-28T02:37:12.156Z,8.06
2023-04-28T02:37:43.782Z,8.00
2023-04-28T02:38:15.388Z,8.04
2023-04-28T02:38:47.757Z,8.04
2023-04-28T02:39:21.901Z,8.02
2023-04-28T02:39:53.519Z,8.02
2023-04-28T02:40:25.791Z,7.94
2023-04-28T02:41:01.381Z,7.93
2023-04-28T02:41:34.630Z,7.82
2023-04-28T02:42:06.207Z,7.78
2023-04-28T02:42:38.739Z,7.71
2023-04-28T02:43:10.690Z,7.87
2023-04-28T02:43:42.431Z,7.72
2023-04-28T02:44:14.309Z,7.74
2023-04-28T02:44:46.046Z,7.78
2023-04-28T02:45:18.608Z,7.67
2023-04-28T02:45:50.366Z,7.74
2023-04-28T02:46:21.962Z,7.72
2023-04-28T02:46:53.696Z,7.70
2023-04-28T02:47:25.298Z,7.70
2023-04-28T02:47:56.915Z,7.59
2023-04-28T02:48:28.525Z,7.60
2023-04-28T02:49:00.129Z,7.81
2023-04-28T02:49:31.734Z,7.83
2023-04-28T02:50:04.412Z,7.80
2023-04-28T02:50:36.087Z,7.88
2023-04-28T02:51:07.673Z,7.93
2023-04-28T02:51:40.240Z,7.80
2023-04-28T02:52:12.644Z,7.65
2023-04-28T02:52:44.782Z,7.66
2023-04-28T02:53:16.712Z,7.68
2023-04-28T02:53:48.353Z,7.71
2023-04-28T02:54:27.542Z,7.67
2023-04-28T02:55:00.301Z,7.79
2023-04-28T02:55:32.258Z,7.74
2023-04-28T02:56:04.575Z,7.74
2023-04-28T02:56:37.690Z,7.74
2023-04-28T02:57:09.690Z,7.80
2023-04-28T02:57:41.377Z,7.77
2023-04-28T02:58:13.207Z,7.87
2023-04-28T02:58:44.729Z,7.96
2023-04-28T02:59:16.305Z,7.92
2023-04-28T02:59:47.812Z,8.02
2023-04-28T03:00:19.588Z,8.08
2023-04-28T03:00:53.543Z,8.04
2023-04-28T03:01:26.128Z,7.86
2023-04-28T03:01:57.780Z,7.93
2023-04-28T03:02:29.470Z,7.95
2023-04-28T03:03:01.979Z,7.93
2023-04-28T03:03:33.839Z,7.93
2023-04-28T03:04:05.830Z,7.94
2023-04-28T03:04:37.689Z,7.95
2023-04-28T03:05:09.702Z,7.89
2023-04-28T03:05:41.476Z,7.91
2023-04-28T03:06:13.087Z,7.83
2023-04-28T03:06:44.869Z,7.87
2023-04-28T03:07:16.599Z,7.84
2023-04-28T03:07:48.121Z,7.85
2023-04-28T03:08:20.960Z,7.82
2023-04-28T03:08:52.625Z,7.86
2023-04-28T03:09:24.179Z,7.79
2023-04-28T03:09:55.811Z,7.81
2023-04-28T03:10:27.473Z,7.81
2023-04-28T03:10:59.000Z,7.75
2023-04-28T03:11:30.514Z,7.72
2023-04-28T03:12:03.556Z,7.83
2023-04-28T03:12:36.889Z,7.86
2023-04-28T03:13:08.531Z,7.72
2023-04-28T03:13:40.163Z,7.79
2023-04-28T03:14:12.367Z,7.64
2023-04-28T03:14:43.953Z,7.66
2023-04-28T03:15:15.746Z,7.80
2023-04-28T03:15:47.382Z,7.84
2023-04-28T03:16:19.006Z,7.79
2023-04-28T03:16:50.865Z,7.76
2023-04-28T03:17:22.707Z,7.55
2023-04-28T03:17:54.721Z,7.79
2023-04-28T03:18:26.368Z,7.80
2023-04-28T03:18:59.828Z,7.76
2023-04-28T03:19:33.109Z,7.80
2023-04-28T03:20:05.631Z,7.69
2023-04-28T03:20:37.362Z,7.68
2023-04-28T03:21:09.284Z,7.84
2023-04-28T03:21:41.003Z,7.96
2023-04-28T03:22:12.570Z,7.98
2023-04-28T03:22:44.170Z,7.95
2023-04-28T03:23:16.085Z,8.04
2023-04-28T03:23:47.627Z,8.02
2023-04-28T03:24:19.481Z,7.96
2023-04-28T03:24:51.179Z,7.90
2023-04-28T03:25:22.726Z,7.96
2023-04-28T03:25:56.222Z,7.96
2023-04-28T03:26:28.729Z,7.95
2023-04-28T03:27:00.284Z,7.99
2023-04-28T03:27:31.965Z,7.95
2023-04-28T03:28:03.693Z,7.89
2023-04-28T03:28:35.286Z,7.87
2023-04-28T03:29:06.968Z,7.86
2023-04-28T03:29:38.526Z,7.86
2023-04-28T03:30:10.568Z,7.89
2023-04-28T03:30:42.162Z,7.84
2023-04-28T03:31:13.683Z,7.86
2023-04-28T03:31:45.562Z,7.85
2023-04-28T03:32:17.275Z,7.83
2023-04-28T03:32:48.926Z,7.85
2023-04-28T03:33:20.821Z,7.78
2023-04-28T03:33:52.353Z,7.80
2023-04-28T03:34:27.877Z,7.81
2023-04-28T03:34:59.648Z,7.81
2023-04-28T03:35:31.309Z,7.83
2023-04-28T03:36:03.109Z,7.82
2023-04-28T03:36:34.797Z,7.78
2023-04-28T03:37:13.957Z,7.79
2023-04-28T03:37:45.644Z,7.83
2023-04-28T03:38:17.182Z,7.81
2023-04-28T03:38:49.013Z,7.81
2023-04-28T03:39:20.551Z,7.85
2023-04-28T03:39:52.128Z,7.79
2023-04-28T03:40:23.788Z,7.76
2023-04-28T03:41:18.682Z,7.78
2023-04-28T03:42:08.950Z,7.78
2023-04-28T03:43:04.765Z,7.57
2023-04-28T03:43:43.717Z,7.64
2023-04-28T03:44:47.280Z,7.78
2023-04-28T03:45:18.903Z,7.88
2023-04-28T03:45:51.373Z,7.85
2023-04-28T03:46:23.288Z,7.78
2023-04-28T03:46:55.236Z,7.70
2023-04-28T03:47:27.532Z,7.66
2023-04-28T03:47:59.578Z,7.87
2023-04-28T03:48:31.438Z,7.90
2023-04-28T03:49:03.132Z,7.81
2023-04-28T03:49:35.795Z,7.83
2023-04-28T03:50:07.978Z,7.76
2023-04-28T03:50:41.072Z,7.74
2023-04-28T03:51:13.169Z,7.74
2023-04-28T03:51:44.805Z,7.71
2023-04-28T03:52:16.534Z,7.67
2023-04-28T03:52:48.806Z,7.69
2023-04-28T03:53:20.817Z,7.75
2023-04-28T03:53:52.718Z,7.73
2023-04-28T03:54:24.340Z,7.78
2023-04-28T03:54:56.109Z,7.85
2023-04-28T03:55:28.276Z,7.71
2023-04-28T03:55:59.855Z,7.81
2023-04-28T03:56:31.421Z,7.93
2023-04-28T03:57:05.758Z,7.83
2023-04-28T03:57:38.365Z,7.83
2023-04-28T03:58:10.241Z,7.87
2023-04-28T03:58:41.839Z,7.83
2023-04-28T03:59:13.946Z,7.71
2023-04-28T03:59:45.762Z,7.89
2023-04-28T04:00:17.613Z,7.79
2023-04-28T04:00:51.402Z,7.71
2023-04-28T04:01:23.658Z,7.91
2023-04-28T04:01:55.900Z,7.90
2023-04-28T04:02:27.663Z,7.82
2023-04-28T04:02:59.484Z,7.75
2023-04-28T04:03:31.556Z,7.78
2023-04-28T04:04:04.083Z,7.81
2023-04-28T04:04:36.298Z,7.82
2023-04-28T04:05:09.013Z,7.75
2023-04-28T04:05:41.442Z,7.78
2023-04-28T04:06:13.504Z,7.90
2023-04-28T04:06:46.140Z,7.80
2023-04-28T04:07:18.429Z,7.84
2023-04-28T04:07:50.001Z,7.69
2023-04-28T04:08:21.740Z,7.72
2023-04-28T04:08:53.521Z,7.96
2023-04-28T04:09:26.318Z,8.13
2023-04-28T04:09:58.214Z,8.15
2023-04-28T04:10:29.824Z,8.10
2023-04-28T04:11:01.574Z,7.87
2023-04-28T04:11:33.195Z,7.71
2023-04-28T04:12:05.017Z,7.71
2023-04-28T04:12:36.541Z,7.70
2023-04-28T04:13:08.679Z,7.69
2023-04-28T04:13:40.218Z,7.63
2023-04-28T04:14:15.630Z,7.79
2023-04-28T04:14:47.476Z,7.84
2023-04-28T04:15:19.762Z,7.80
2023-04-28T04:15:53.161Z,7.98
2023-04-28T04:16:27.056Z,8.07
2023-04-28T04:17:00.769Z,7.89
2023-04-28T04:17:32.533Z,7.90
2023-04-28T04:18:04.235Z,7.86
2023-04-28T04:18:49.371Z,7.63
2023-04-28T04:19:26.684Z,7.72
2023-04-28T04:19:59.439Z,7.73
2023-04-28T04:20:31.726Z,7.80
2023-04-28T04:21:03.778Z,7.82
2023-04-28T04:21:35.545Z,7.88
2023-04-28T04:22:07.482Z,7.86
2023-04-28T04:22:39.247Z,7.86
2023-04-28T04:23:10.935Z,7.86
2023-04-28T04:23:42.694Z,7.99
2023-04-28T04:24:15.057Z,8.05
2023-04-28T04:24:47.412Z,7.97
2023-04-28T04:25:20.128Z,7.94
2023-04-28T04:25:53.784Z,7.95
2023-04-28T04:26:25.569Z,7.96
2023-04-28T04:26:57.155Z,8.13
2023-04-28T04:27:41.088Z,8.11
2023-04-28T04:28:12.783Z,7.94
2023-04-28T04:28:44.561Z,8.04
2023-04-28T04:29:16.191Z,7.89
2023-04-28T04:29:47.801Z,7.99
2023-04-28T04:30:20.274Z,7.94
2023-04-28T04:30:51.956Z,7.88
2023-04-28T04:31:23.629Z,7.97
2023-04-28T04:31:56.458Z,8.06
2023-04-28T04:32:28.059Z,7.98
2023-04-28T04:33:00.119Z,7.94
2023-04-28T04:33:31.806Z,7.99
2023-04-28T04:34:03.408Z,7.94
2023-04-28T04:34:35.050Z,8.04
2023-04-28T04:35:07.020Z,7.92
2023-04-28T04:35:38.713Z,7.86
2023-04-28T04:36:10.373Z,7.88
2023-04-28T04:36:41.994Z,7.78
2023-04-28T04:37:14.037Z,7.80
2023-04-28T04:37:52.299Z,7.82
2023-04-28T04:38:24.636Z,7.88
2023-04-28T04:38:56.369Z,7.96
2023-04-28T04:39:28.032Z,7.90
2023-04-28T04:39:59.763Z,7.91
2023-04-28T04:40:31.470Z,7.87
2023-04-28T04:41:03.058Z,7.84
2023-04-28T04:41:34.662Z,7.77
2023-04-28T04:42:29.721Z,7.70
2023-04-28T04:43:11.057Z,7.74
2023-04-28T04:43:49.504Z,7.90
2023-04-28T04:44:21.745Z,7.87
2023-04-28T04:44:55.842Z,7.90
2023-04-28T04:45:32.474Z,7.87
2023-04-28T04:46:04.558Z,7.89
2023-04-28T04:46:37.289Z,7.84
2023-04-28T04:47:09.919Z,7.79
2023-04-28T04:47:42.140Z,7.75
2023-04-28T04:48:14.120Z,7.83
2023-04-28T04:48:46.261Z,7.84
2023-04-28T04:49:17.983Z,7.89
2023-04-28T04:49:52.726Z,7.84
2023-04-28T04:50:24.501Z,7.90
2023-04-28T04:50:56.040Z,7.90
2023-04-28T04:51:28.169Z,7.93
2023-04-28T04:51:59.727Z,7.94
2023-04-28T04:52:31.627Z,7.89
2023-04-28T04:53:03.284Z,7.78
2023-04-28T04:53:34.963Z,7.71
2023-04-28T04:54:06.490Z,7.83
2023-04-28T04:54:38.302Z,7.99
2023-04-28T04:55:11.378Z,8.15
2023-04-28T04:55:45.385Z,7.99
2023-04-28T04:56:17.138Z,8.00
2023-04-28T04:56:48.745Z,7.97
2023-04-28T04:57:26.361Z,8.13
2023-04-28T04:58:24.901Z,8.06
2023-04-28T04:59:12.503Z,8.22
2023-04-28T04:59:56.932Z,8.17
2023-04-28T05:00:28.605Z,8.04
2023-04-28T05:01:00.437Z,8.11
2023-04-28T05:01:32.080Z,8.14
2023-04-28T05:02:03.919Z,8.11
2023-04-28T05:02:35.867Z,7.99
2023-04-28T05:03:10.005Z,8.00
2023-04-28T05:03:43.694Z,8.00
2023-04-28T05:04:15.637Z,8.21
2023-04-28T05:04:47.634Z,8.17
2023-04-28T05:05:21.942Z,8.15
2023-04-28T05:06:20.715Z,8.21
2023-04-28T05:06:53.728Z,8.31
2023-04-28T05:07:26.706Z,8.33
2023-04-28T05:07:58.564Z,8.28
2023-04-28T05:08:30.247Z,8.29
2023-04-28T05:09:02.787Z,8.26
2023-04-28T05:09:35.057Z,8.19
2023-04-28T05:10:07.427Z,8.25
2023-04-28T05:10:39.040Z,8.18
2023-04-28T05:11:10.695Z,8.30
2023-04-28T05:11:43.263Z,8.32
2023-04-28T05:12:14.799Z,8.35
2023-04-28T05:12:48.984Z,8.26
2023-04-28T05:13:22.467Z,8.15
2023-04-28T05:14:00.558Z,8.23
2023-04-28T05:14:32.173Z,8.25
2023-04-28T05:15:05.037Z,8.30
2023-04-28T05:15:36.730Z,8.25
2023-04-28T05:16:25.090Z,8.18
2023-04-28T05:17:06.137Z,8.34
2023-04-28T05:17:43.488Z,8.35
2023-04-28T05:18:15.858Z,8.32
2023-04-28T05:18:47.528Z,8.46
2023-04-28T05:19:19.794Z,8.36
2023-04-28T05:19:51.311Z,8.41
2023-04-28T05:20:23.974Z,8.34
2023-04-28T05:20:55.663Z,8.27
2023-04-28T05:21:27.547Z,8.34
2023-04-28T05:22:00.892Z,8.34
2023-04-28T05:22:32.592Z,8.41
2023-04-28T05:23:04.262Z,8.33
2023-04-28T05:23:35.792Z,8.25
2023-04-28T05:24:08.512Z,8.26
2023-04-28T05:24:40.408Z,8.34
2023-04-28T05:25:12.091Z,8.33
2023-04-28T05:25:44.238Z,8.28
2023-04-28T05:26:16.766Z,8.36
2023-04-28T05:26:48.543Z,8.38
2023-04-28T05:27:20.145Z,8.40
2023-04-28T05:27:51.767Z,8.32
2023-04-28T05:28:23.381Z,8.27
2023-04-28T05:28:58.697Z,8.34
2023-04-28T05:29:30.753Z,8.34
2023-04-28T05:30:02.320Z,8.27
2023-04-28T05:30:34.623Z,8.38
2023-04-28T05:31:06.282Z,8.30
2023-04-28T05:31:38.125Z,8.41
2023-04-28T05:32:09.856Z,8.40
2023-04-28T05:32:44.628Z,8.38
2023-04-28T05:33:16.588Z,8.38
2023-04-28T05:33:48.292Z,8.38
2023-04-28T05:34:19.969Z,8.24
2023-04-28T05:34:51.668Z,8.18
2023-04-28T05:35:23.236Z,8.16
2023-04-28T05:35:54.802Z,8.27
2023-04-28T05:36:26.844Z,8.21
2023-04-28T05:36:58.460Z,8.17
2023-04-28T05:37:33.001Z,8.27
2023-04-28T05:38:04.663Z,8.31
2023-04-28T05:38:36.442Z,8.36
2023-04-28T05:39:08.120Z,8.40
2023-04-28T05:39:39.942Z,8.48
2023-04-28T05:40:12.140Z,8.35
2023-04-28T05:40:44.716Z,8.43
2023-04-28T05:41:17.538Z,8.39
2023-04-28T05:41:49.257Z,8.52
2023-04-28T05:42:20.911Z,8.56
2023-04-28T05:42:52.673Z,8.38
2023-04-28T05:43:24.265Z,8.36
2023-04-28T05:43:55.909Z,8.34
2023-04-28T05:44:27.760Z,8.39
2023-04-28T05:44:59.395Z,8.42
2023-04-28T05:45:31.317Z,8.47
2023-04-28T05:46:03.397Z,8.48
2023-04-28T05:46:36.885Z,8.47
2023-04-28T05:47:08.481Z,8.44
2023-04-28T05:47:40.091Z,8.53
2023-04-28T05:48:12.075Z,8.46
2023-04-28T05:48:45.726Z,8.39
2023-04-28T05:49:17.437Z,8.42
2023-04-28T05:49:49.048Z,8.35
2023-04-28T05:50:22.473Z,8.42
2023-04-28T05:50:55.147Z,8.44
2023-04-28T05:51:27.383Z,8.34
2023-04-28T05:51:58.966Z,8.36
2023-04-28T05:52:30.744Z,8.32
2023-04-28T05:53:02.396Z,8.43
2023-04-28T05:53:34.789Z,8.59
2023-04-28T05:54:06.400Z,8.60
2023-04-28T05:54:44.093Z,8.49
2023-04-28T05:55:15.704Z,8.43
2023-04-28T05:55:48.234Z,8.25
2023-04-28T05:56:20.188Z,8.30
2023-04-28T05:56:53.310Z,8.42
2023-04-28T05:57:24.890Z,8.45
2023-04-28T05:57:56.445Z,8.46
2023-04-28T05:58:28.042Z,8.41
2023-04-28T05:59:04.021Z,8.42
2023-04-28T05:59:35.641Z,8.40
2023-04-28T06:00:07.856Z,8.34
2023-04-28T06:00:44.033Z,8.38
2023-04-28T06:01:17.460Z,8.39
2023-04-28T06:01:50.770Z,8.31
2023-04-28T06:02:23.767Z,8.44
2023-04-28T06:02:56.508Z,8.47
2023-04-28T06:03:28.666Z,8.53
2023-04-28T06:04:00.784Z,8.49
2023-04-28T06:04:33.066Z,8.52
2023-04-28T06:05:05.610Z,8.53
2023-04-28T06:05:37.823Z,8.57
2023-04-28T06:06:11.435Z,8.58
2023-04-28T06:06:43.001Z,8.53
2023-04-28T06:07:14.833Z,8.50
2023-04-28T06:07:48.264Z,8.60
2023-04-28T06:08:21.439Z,8.56
2023-04-28T06:08:53.220Z,8.55
2023-04-28T06:09:24.817Z,8.57
2023-04-28T06:09:57.909Z,8.55
2023-04-28T06:10:29.767Z,8.67
2023-04-28T06:11:01.706Z,8.62
2023-04-28T06:11:33.379Z,8.59
2023-04-28T06:12:05.142Z,8.74
2023-04-28T06:12:37.590Z,8.69
2023-04-28T06:13:10.482Z,8.75
2023-04-28T06:13:42.523Z,8.76
2023-04-28T06:14:14.174Z,8.61
2023-04-28T06:14:46.952Z,8.74
2023-04-28T06:15:18.529Z,8.84
2023-04-28T06:15:50.193Z,8.79
2023-04-28T06:16:23.547Z,8.66
2023-04-28T06:16:55.386Z,8.59
2023-04-28T06:17:27.222Z,8.56
2023-04-28T06:17:59.353Z,8.53
2023-04-28T06:18:32.934Z,8.53
2023-04-28T06:19:06.107Z,8.55
2023-04-28T06:19:37.781Z,8.49
2023-04-28T06:20:11.195Z,8.49
2023-04-28T06:20:43.169Z,8.51
2023-04-28T06:21:14.806Z,8.46
2023-04-28T06:21:46.643Z,8.65
2023-04-28T06:22:19.010Z,8.80
2023-04-28T06:22:51.526Z,8.69
2023-04-28T06:23:23.202Z,8.58
2023-04-28T06:23:55.700Z,8.68
2023-04-28T06:24:27.266Z,8.70
2023-04-28T06:25:00.685Z,8.66
2023-04-28T06:25:39.890Z,8.61
2023-04-28T06:26:11.462Z,8.62
2023-04-28T06:26:44.464Z,8.66
2023-04-28T06:27:16.199Z,8.70
2023-04-28T06:27:47.899Z,8.67
2023-04-28T06:28:19.650Z,8.65
2023-04-28T06:28:51.305Z,8.65
2023-04-28T06:29:24.155Z,8.71
2023-04-28T06:29:56.066Z,8.76
2023-04-28T06:30:27.706Z,8.82
2023-04-28T06:31:00.021Z,8.76
2023-04-28T06:31:31.713Z,8.80
2023-04-28T06:32:03.254Z,8.84
2023-04-28T06:32:34.843Z,8.96
2023-04-28T06:33:07.757Z,8.90
2023-04-28T06:33:39.359Z,8.87
2023-04-28T06:34:11.343Z,8.93
2023-04-28T06:34:42.912Z,8.83
2023-04-28T06:35:15.831Z,8.82
2023-04-28T06:35:47.670Z,8.86
2023-04-28T06:36:20.622Z,8.88
2023-04-28T06:36:52.170Z,9.04
2023-04-28T06:37:23.935Z,8.95
2023-04-28T06:37:55.478Z,8.95
2023-04-28T06:38:27.371Z,8.97
2023-04-28T06:38:59.425Z,8.97
2023-04-28T06:39:31.259Z,8.97
2023-04-28T06:40:02.856Z,9.12
2023-04-28T06:40:34.437Z,9.19
2023-04-28T06:41:07.557Z,9.20
2023-04-28T06:41:41.139Z,9.20
2023-04-28T06:42:13.141Z,9.11
2023-04-28T06:42:47.813Z,9.17
2023-04-28T06:43:25.156Z,9.18
2023-04-28T06:44:07.713Z,9.12
2023-04-28T06:44:39.922Z,9.17
2023-04-28T06:45:11.834Z,9.18
2023-04-28T06:45:43.451Z,9.09
2023-04-28T06:46:15.094Z,9.08
2023-04-28T06:46:47.525Z,9.11
2023-04-28T06:47:19.388Z,9.21
2023-04-28T06:47:51.344Z,9.14
2023-04-28T06:48:22.972Z,9.14
2023-04-28T06:48:54.537Z,9.09
2023-04-28T06:49:26.376Z,9.12
2023-04-28T06:50:04.751Z,9.18
2023-04-28T06:50:43.491Z,9.30
2023-04-28T06:51:16.365Z,9.35
2023-04-28T06:51:47.999Z,9.36
2023-04-28T06:52:27.141Z,9.42
2023-04-28T06:53:05.033Z,9.24
2023-04-28T06:53:37.196Z,9.21
2023-04-28T06:54:12.638Z,9.39
2023-04-28T06:54:48.454Z,9.37
2023-04-28T06:55:20.049Z,9.33
2023-04-28T06:55:52.051Z,9.28
2023-04-28T06:56:25.581Z,9.21
2023-04-28T06:56:57.168Z,9.12
2023-04-28T06:57:29.343Z,9.43
2023-04-28T06:58:01.438Z,9.30
2023-04-28T06:58:34.062Z,9.34
2023-04-28T06:59:06.198Z,9.31
2023-04-28T06:59:38.300Z,9.30
2023-04-28T07:00:10.726Z,9.35
2023-04-28T07:00:42.420Z,9.21
2023-04-28T07:01:14.029Z,9.31
2023-04-28T07:01:45.764Z,9.23
2023-04-28T07:02:18.638Z,9.20
2023-04-28T07:02:50.625Z,9.28
2023-04-28T07:03:22.307Z,9.31
2023-04-28T07:03:54.100Z,9.36
2023-04-28T07:04:26.101Z,9.33
2023-04-28T07:04:57.776Z,9.35
2023-04-28T07:05:29.356Z,9.44
2023-04-28T07:06:01.068Z,9.52
2023-04-28T07:06:32.800Z,9.60
2023-04-28T07:07:08.183Z,9.54
2023-04-28T07:07:39.814Z,9.57
2023-04-28T07:08:11.394Z,9.72
2023-04-28T07:08:43.905Z,9.71
2023-04-28T07:09:16.261Z,9.81
2023-04-28T07:09:47.782Z,9.78
2023-04-28T07:10:19.507Z,9.69
2023-04-28T07:10:51.065Z,9.72
2023-04-28T07:11:23.568Z,9.74
2023-04-28T07:11:55.184Z,9.65
2023-04-28T07:12:27.653Z,9.63
2023-04-28T07:12:59.807Z,9.52
2023-04-28T07:13:31.422Z,9.51
2023-04-28T07:14:03.024Z,9.60
2023-04-28T07:14:34.577Z,9.55
2023-04-28T07:15:06.914Z,9.54